createdAt,value
2023-04-26T00:00:55.696Z,5.85
2023-04-26T00:03:28.912Z,6.88
2023-04-26T00:05:59.439Z,7.00
2023-04-26T00:08:32.738Z,8.20
2023-04-26T00:11:03.302Z,5.47
2023-04-26T00:13:38.222Z,5.93
2023-04-26T00:16:09.302Z,5.35
2023-04-26T00:18:39.747Z,6.25
2023-04-26T00:21:10.137Z,5.78
2023-04-26T00:23:45.283Z,9.52
2023-04-26T00:26:15.510Z,5.70
2023-04-26T00:28:46.081Z,6.65
2023-04-26T00:31:18.615Z,8.25
2023-04-26T00:33:48.998Z,4.80
2023-04-26T00:36:19.738Z,5.35
2023-04-26T00:38:53.095Z,6.15
2023-04-26T00:41:24.582Z,6.90
2023-04-26T00:43:54.857Z,6.22
2023-04-26T00:46:26.771Z,5.25
2023-04-26T00:48:57.204Z,4.80
2023-04-26T00:51:28.533Z,5.38
2023-04-26T00:54:02.413Z,4.95
2023-04-26T00:56:36.816Z,6.57
2023-04-26T00:59:07.606Z,4.32
2023-04-26T01:01:39.035Z,14.48
2023-04-26T01:04:09.667Z,4.68
2023-04-26T01:06:40.068Z,4.75
2023-04-26T01:09:16.470Z,6.03
2023-04-26T01:11:47.402Z,5.68
2023-04-26T01:14:18.564Z,5.70
2023-04-26T01:16:50.317Z,5.50
2023-04-26T01:19:21.652Z,4.97
2023-04-26T01:21:51.965Z,5.97
2023-04-26T01:24:24.820Z,5.18
2023-04-26T01:26:55.245Z,5.75
2023-04-26T01:29:25.756Z,4.60
2023-04-26T01:31:56.101Z,4.95
2023-04-26T01:34:26.359Z,5.35
2023-04-26T01:36:56.762Z,5.20
2023-04-26T01:39:29.559Z,5.03
2023-04-26T01:42:03.165Z,5.03
2023-04-26T01:44:33.395Z,5.20
2023-04-26T01:47:04.075Z,4.90
2023-04-26T01:49:34.473Z,5.72
2023-04-26T01:52:05.224Z,5.65
2023-04-26T01:54:38.126Z,6.82
2023-04-26T01:57:08.316Z,4.85
2023-04-26T01:59:38.679Z,9.88
2023-04-26T02:02:09.302Z,5.38
2023-04-26T02:04:40.188Z,6.28
2023-04-26T02:07:10.387Z,5.63
2023-04-26T02:09:43.258Z,5.18
2023-04-26T02:12:13.491Z,5.03
2023-04-26T02:14:43.684Z,5.88
2023-04-26T02:17:14.284Z,7.38
2023-04-26T02:19:44.784Z,5.65
2023-04-26T02:22:15.132Z,4.30
2023-04-26T02:24:47.920Z,5.45
2023-04-26T02:27:18.351Z,5.10
2023-04-26T02:29:51.857Z,5.57
2023-04-26T02:32:22.164Z,4.68
2023-04-26T02:34:54.460Z,5.65
2023-04-26T02:37:27.890Z,6.40
2023-04-26T02:40:01.731Z,5.32
2023-04-26T02:42:33.537Z,5.32
2023-04-26T02:45:03.734Z,5.63
2023-04-26T02:47:33.973Z,5.32
2023-04-26T02:50:06.577Z,6.60
2023-04-26T02:52:37.163Z,6.68
2023-04-26T02:55:11.500Z,8.32
2023-04-26T02:57:41.772Z,6.30
2023-04-26T03:00:14.459Z,7.07
2023-04-26T03:02:44.996Z,6.20
2023-04-26T03:05:15.266Z,10.60
2023-04-26T03:07:45.533Z,6.65
2023-04-26T03:10:18.521Z,6.50
2023-04-26T03:12:48.779Z,6.20
2023-04-26T03:15:19.052Z,6.45
2023-04-26T03:17:55.994Z,7.07
2023-04-26T03:20:26.290Z,6.85
2023-04-26T03:22:56.541Z,8.18
2023-04-26T03:25:29.498Z,6.88
2023-04-26T03:27:59.671Z,9.20
2023-04-26T03:30:30.072Z,8.10
2023-04-26T03:33:00.986Z,9.40
2023-04-26T03:35:31.287Z,6.30
2023-04-26T03:38:01.722Z,7.20
2023-04-26T03:40:37.465Z,7.07
2023-04-26T03:43:08.612Z,8.73
2023-04-26T03:45:39.668Z,7.10
2023-04-26T03:48:10.171Z,7.35
2023-04-26T03:50:40.458Z,9.10
2023-04-26T03:53:10.819Z,6.82
2023-04-26T03:55:43.680Z,9.48
2023-04-26T03:58:14.389Z,8.45
2023-04-26T04:00:46.312Z,10.57
2023-04-26T04:03:16.878Z,9.65
2023-04-26T04:05:47.336Z,8.95
2023-04-26T04:08:18.735Z,8.63
2023-04-26T04:10:51.647Z,9.15
2023-04-26T04:13:22.122Z,9.30
2023-04-26T04:15:55.501Z,7.88
2023-04-26T04:18:26.714Z,9.02
2023-04-26T04:20:57.040Z,9.27
2023-04-26T04:23:27.646Z,8.13
2023-04-26T04:26:00.588Z,8.32
2023-04-26T04:28:30.868Z,9.18
2023-04-26T04:31:01.273Z,7.93
2023-04-26T04:33:31.530Z,8.30
2023-04-26T04:36:01.770Z,10.70
2023-04-26T04:38:32.564Z,10.65
2023-04-26T04:41:05.629Z,9.75
2023-04-26T04:43:36.096Z,10.90
2023-04-26T04:46:06.336Z,10.00
2023-04-26T04:48:38.906Z,13.23
2023-04-26T04:51:09.513Z,18.08
2023-04-26T04:53:39.789Z,19.52
2023-04-26T04:56:12.757Z,15.43
2023-04-26T04:58:42.923Z,13.48
2023-04-26T05:01:13.138Z,11.13
2023-04-26T05:03:43.581Z,11.10
2023-04-26T05:06:14.006Z,11.18
2023-04-26T05:08:44.347Z,17.05
2023-04-26T05:11:17.266Z,12.40
2023-04-26T05:13:47.616Z,12.70
2023-04-26T05:16:17.948Z,13.13
2023-04-26T05:18:48.446Z,11.10
2023-04-26T05:21:18.734Z,9.30
2023-04-26T05:23:49.002Z,11.93
2023-04-26T05:26:21.964Z,8.82
2023-04-26T05:28:52.235Z,9.27
2023-04-26T05:31:22.514Z,9.18
2023-04-26T05:33:53.343Z,11.68
2023-04-26T05:36:24.021Z,8.90
2023-04-26T05:38:54.307Z,10.75
2023-04-26T05:41:27.429Z,9.65
2023-04-26T05:43:57.679Z,8.20
2023-04-26T05:46:28.159Z,9.52
2023-04-26T05:48:58.623Z,9.00
2023-04-26T05:51:28.979Z,7.90
2023-04-26T05:54:02.684Z,8.07
2023-04-26T05:56:35.660Z,7.18
2023-04-26T05:59:05.975Z,8.73
2023-04-26T06:01:36.392Z,6.85
2023-04-26T06:04:07.712Z,7.30
2023-04-26T06:06:38.513Z,7.43
2023-04-26T06:09:08.916Z,8.00
2023-04-26T06:11:41.761Z,5.85
2023-04-26T06:14:23.124Z,6.82
2023-04-26T06:17:00.316Z,7.93
2023-04-26T06:19:31.689Z,7.40
2023-04-26T06:22:02.113Z,6.40
2023-04-26T06:24:33.470Z,7.07
2023-04-26T06:27:06.363Z,7.00
2023-04-26T06:29:36.782Z,7.03
2023-04-26T06:32:07.232Z,5.40
2023-04-26T06:34:38.184Z,6.07
2023-04-26T06:37:08.472Z,5.75
2023-04-26T06:39:38.817Z,5.65
2023-04-26T06:42:11.803Z,5.35
2023-04-26T06:44:42.426Z,5.60
2023-04-26T06:47:12.694Z,6.63
2023-04-26T06:49:43.100Z,5.90
2023-04-26T06:52:13.506Z,5.53
2023-04-26T06:54:55.877Z,6.30
2023-04-26T06:57:29.738Z,5.67
2023-04-26T07:00:00.162Z,6.77
2023-04-26T07:02:30.792Z,5.13
2023-04-26T07:05:01.397Z,6.20
2023-04-26T07:07:31.991Z,6.03
2023-04-26T07:10:02.434Z,5.70
2023-04-26T07:12:37.486Z,8.27
2023-04-26T07:15:09.705Z,8.10
2023-04-26T07:17:39.983Z,6.07
2023-04-26T07:20:12.346Z,7.25
2023-04-26T07:22:42.793Z,6.50
2023-04-26T07:25:13.283Z,5.25
2023-04-26T07:27:46.450Z,5.75
2023-04-26T07:30:17.109Z,6.15
2023-04-26T07:32:47.396Z,5.00
2023-04-26T07:35:18.925Z,8.13
2023-04-26T07:37:49.213Z,5.55
2023-04-26T07:40:20.165Z,4.97
2023-04-26T07:42:53.239Z,5.25
2023-04-26T07:45:23.658Z,6.90
2023-04-26T07:47:54.739Z,7.13
2023-04-26T07:50:25.128Z,6.85
2023-04-26T07:52:55.447Z,4.93
2023-04-26T07:55:26.222Z,6.55
2023-04-26T07:57:59.132Z,5.28
2023-04-26T08:00:29.509Z,6.37
2023-04-26T08:02:59.885Z,4.70
2023-04-26T08:05:30.811Z,5.70
2023-04-26T08:08:01.941Z,6.38
2023-04-26T08:10:32.427Z,6.70
2023-04-26T08:13:06.124Z,5.45
2023-04-26T08:18:09.330Z,6.50
2023-04-26T08:20:39.800Z,4.72
2023-04-26T08:23:10.216Z,6.88
2023-04-26T08:25:40.984Z,5.97
2023-04-26T08:28:14.773Z,6.30
2023-04-26T08:33:15.271Z,6.72
2023-04-26T08:35:48.091Z,5.55
2023-04-26T08:38:18.423Z,5.38
2023-04-26T08:40:49.914Z,7.55
2023-04-26T08:43:23.070Z,5.78
2023-04-26T08:45:54.666Z,5.30
2023-04-26T08:48:26.686Z,5.78
2023-04-26T08:50:57.501Z,7.43
2023-04-26T08:53:28.029Z,6.18
2023-04-26T08:55:58.770Z,6.32
2023-04-26T08:58:32.639Z,6.90
2023-04-26T09:01:04.655Z,5.18
2023-04-26T09:03:35.397Z,7.50
2023-04-26T09:06:06.693Z,9.38
2023-04-26T09:08:43.498Z,8.20
2023-04-26T09:11:13.762Z,6.68
2023-04-26T09:13:46.688Z,8.52
2023-04-26T09:16:17.032Z,9.80
2023-04-26T09:18:57.461Z,6.75
2023-04-26T09:21:29.948Z,7.88
2023-04-26T09:24:04.887Z,9.73
2023-04-26T09:26:35.151Z,7.85
2023-04-26T09:29:18.241Z,7.03
2023-04-26T09:31:50.358Z,6.22
2023-04-26T09:34:20.925Z,8.30
2023-04-26T09:36:56.379Z,9.18
2023-04-26T09:39:37.773Z,9.25
2023-04-26T09:42:08.793Z,7.95
2023-04-26T09:44:41.765Z,8.90
2023-04-26T09:47:14.096Z,6.95
2023-04-26T09:49:49.352Z,6.68
2023-04-26T09:52:20.781Z,6.30
2023-04-26T09:54:52.486Z,11.00
2023-04-26T09:57:23.892Z,8.18
2023-04-26T09:59:57.995Z,10.05
2023-04-26T10:05:02.570Z,12.90
2023-04-26T10:07:34.273Z,12.30
2023-04-26T10:10:05.662Z,10.38
2023-04-26T10:12:37.598Z,8.15
2023-04-26T10:15:12.655Z,11.63
2023-04-26T10:17:43.074Z,12.90
2023-04-26T10:20:16.785Z,8.52
2023-04-26T10:22:52.172Z,9.38
2023-04-26T10:25:42.889Z,10.00
2023-04-26T10:28:14.128Z,9.15
2023-04-26T10:31:02.707Z,8.05
2023-04-26T10:33:33.026Z,8.50
2023-04-26T10:36:12.441Z,8.20
2023-04-26T10:38:44.657Z,6.47
2023-04-26T10:41:34.136Z,6.82
2023-04-26T10:44:39.740Z,6.93
2023-04-26T10:47:25.630Z,6.45
2023-04-26T10:49:56.128Z,8.10
2023-04-26T10:52:27.045Z,6.93
2023-04-26T10:54:58.835Z,7.75
2023-04-26T10:57:50.608Z,7.35
2023-04-26T11:00:31.957Z,8.75
2023-04-26T11:03:10.076Z,8.10
2023-04-26T11:05:56.944Z,6.80
2023-04-26T11:08:32.411Z,6.93
2023-04-26T11:11:11.204Z,8.27
2023-04-26T11:13:42.976Z,6.07
2023-04-26T11:16:14.279Z,9.70
2023-04-26T11:18:48.560Z,6.72
2023-04-26T11:21:20.478Z,8.63
2023-04-26T11:23:59.464Z,5.63
2023-04-26T11:26:36.861Z,7.90
2023-04-26T11:29:07.114Z,8.18
2023-04-26T11:31:37.796Z,7.55
2023-04-26T11:34:10.731Z,8.13
2023-04-26T11:36:41.839Z,7.23
2023-04-26T11:39:14.143Z,8.43
2023-04-26T11:41:44.577Z,5.75
2023-04-26T11:44:15.521Z,6.63
2023-04-26T11:46:46.536Z,7.07
2023-04-26T11:49:20.566Z,7.65
2023-04-26T11:54:31.853Z,8.43
2023-04-26T11:57:03.209Z,7.22
2023-04-26T11:59:34.069Z,7.57
2023-04-26T12:02:10.490Z,8.05
2023-04-26T12:04:45.103Z,8.18
2023-04-26T12:07:15.614Z,5.35
2023-04-26T12:09:46.295Z,6.80
2023-04-26T12:12:16.735Z,7.68
2023-04-26T12:14:47.593Z,7.60
2023-04-26T12:17:18.442Z,8.07
2023-04-26T12:19:53.243Z,7.32
2023-04-26T12:22:24.764Z,7.15
2023-04-26T12:25:08.174Z,9.02
2023-04-26T12:27:39.820Z,6.63
2023-04-26T12:30:11.612Z,7.05
2023-04-26T12:32:42.165Z,6.78
2023-04-26T12:35:15.147Z,6.03
2023-04-26T12:37:45.505Z,5.78
2023-04-26T12:40:16.688Z,5.75
2023-04-26T12:42:47.147Z,6.70
2023-04-26T12:45:18.526Z,5.68
2023-04-26T12:47:49.876Z,8.35
2023-04-26T12:50:23.085Z,6.97
2023-04-26T12:52:53.430Z,5.68
2023-04-26T12:55:24.360Z,5.63
2023-04-26T12:57:54.712Z,7.10
2023-04-26T13:00:26.257Z,5.95
2023-04-26T13:02:56.777Z,4.78
2023-04-26T13:05:29.937Z,7.47
2023-04-26T13:08:02.300Z,8.67
2023-04-26T13:10:33.195Z,5.63
2023-04-26T13:13:03.595Z,6.28
2023-04-26T13:15:34.241Z,7.18
2023-04-26T13:18:04.699Z,6.93
2023-04-26T13:20:38.514Z,5.53
2023-04-26T13:23:09.659Z,5.25
2023-04-26T13:25:40.410Z,7.38
2023-04-26T13:28:11.037Z,6.55
2023-04-26T13:30:41.596Z,6.18
2023-04-26T13:33:11.940Z,6.40
2023-04-26T13:35:44.871Z,9.48
2023-04-26T13:38:16.581Z,8.30
2023-04-26T13:40:47.472Z,6.15
2023-04-26T13:43:17.943Z,5.82
2023-04-26T13:45:48.235Z,6.15
2023-04-26T13:48:21.828Z,6.30
2023-04-26T13:50:56.466Z,7.10
2023-04-26T13:53:26.805Z,7.85
2023-04-26T13:55:57.322Z,6.93
2023-04-26T13:58:27.784Z,8.02
2023-04-26T14:00:58.158Z,6.10
2023-04-26T14:03:29.751Z,6.07
2023-04-26T14:06:04.673Z,8.90
2023-04-26T14:08:36.155Z,7.95
2023-04-26T14:11:08.156Z,7.07
2023-04-26T14:13:38.444Z,7.10
2023-04-26T14:16:09.124Z,4.78
2023-04-26T14:18:45.069Z,7.32
2023-04-26T14:21:20.943Z,5.63
2023-04-26T14:23:51.236Z,6.18
2023-04-26T14:26:21.950Z,4.78
2023-04-26T14:28:52.496Z,6.40
2023-04-26T14:31:24.621Z,6.35
2023-04-26T14:33:55.099Z,7.60
2023-04-26T14:36:28.322Z,6.13
2023-04-26T14:38:58.653Z,5.68
2023-04-26T14:41:28.956Z,5.28
2023-04-26T14:43:59.221Z,9.80
2023-04-26T14:46:29.539Z,7.38
2023-04-26T14:48:59.841Z,6.28
2023-04-26T14:51:32.903Z,7.25
2023-04-26T14:54:03.261Z,7.53
2023-04-26T14:56:36.391Z,7.00
2023-04-26T14:59:08.232Z,7.72
2023-04-26T15:01:38.777Z,8.07
2023-04-26T15:04:09.396Z,6.38
2023-04-26T15:06:42.611Z,6.05
2023-04-26T15:09:13.388Z,7.60
2023-04-26T15:11:44.007Z,7.75
2023-04-26T15:14:14.381Z,6.78
2023-04-26T15:16:45.369Z,7.93
2023-04-26T15:19:17.861Z,9.43
2023-04-26T15:21:52.837Z,7.03
2023-04-26T15:24:23.120Z,6.90
2023-04-26T15:26:53.289Z,6.90
2023-04-26T15:29:23.671Z,7.20
2023-04-26T15:31:54.011Z,8.75
2023-04-26T15:34:25.483Z,6.90
2023-04-26T15:36:58.301Z,6.57
2023-04-26T15:39:28.633Z,9.18
2023-04-26T15:41:59.134Z,7.97
2023-04-26T15:44:29.494Z,5.90
2023-04-26T15:47:01.620Z,8.55
2023-04-26T15:49:31.933Z,8.07
2023-04-26T15:52:07.235Z,6.13
2023-04-26T15:54:37.481Z,6.40
2023-04-26T15:57:07.796Z,8.10
2023-04-26T15:59:38.116Z,6.35
2023-04-26T16:02:08.495Z,7.45
2023-04-26T16:04:38.970Z,7.75
2023-04-26T16:07:12.028Z,7.53
2023-04-26T16:09:42.381Z,6.78
2023-04-26T16:12:12.777Z,5.93
2023-04-26T16:14:43.436Z,6.55
2023-04-26T16:17:14.005Z,7.38
2023-04-26T16:19:44.265Z,6.15
2023-04-26T16:22:17.243Z,6.47
2023-04-26T16:24:47.626Z,6.82
2023-04-26T16:27:18.133Z,6.43
2023-04-26T16:29:48.471Z,5.90
2023-04-26T16:32:18.927Z,10.38
2023-04-26T16:34:49.299Z,7.43
2023-04-26T16:37:22.173Z,6.20
2023-04-26T16:39:58.394Z,5.85
2023-04-26T16:42:29.224Z,10.40
2023-04-26T16:44:59.528Z,8.93
2023-04-26T16:47:29.906Z,10.05
2023-04-26T16:50:00.549Z,10.85
2023-04-26T16:52:33.547Z,10.20
2023-04-26T16:55:04.377Z,7.35
2023-04-26T16:57:34.635Z,10.35
2023-04-26T17:00:07.532Z,6.10
2023-04-26T17:02:42.861Z,7.35
2023-04-26T17:05:13.986Z,9.00
2023-04-26T17:07:46.917Z,8.40
2023-04-26T17:10:17.370Z,5.75
2023-04-26T17:12:47.616Z,7.43
2023-04-26T17:15:17.921Z,8.90
2023-04-26T17:17:48.574Z,7.65
2023-04-26T17:20:19.930Z,8.02
2023-04-26T17:22:52.793Z,10.30
2023-04-26T17:25:23.817Z,9.02
2023-04-26T17:27:55.649Z,11.10
2023-04-26T17:30:29.473Z,8.43
2023-04-26T17:33:01.013Z,10.20
2023-04-26T17:35:31.664Z,7.03
2023-04-26T17:38:05.224Z,7.57
2023-04-26T17:40:35.520Z,6.93
2023-04-26T17:43:08.194Z,7.00
2023-04-26T17:45:38.842Z,7.10
2023-04-26T17:48:13.436Z,8.52
2023-04-26T17:50:44.285Z,6.47
2023-04-26T17:53:18.010Z,7.38
2023-04-26T17:58:18.760Z,7.68
2023-04-26T18:00:49.098Z,5.50
2023-04-26T18:03:20.645Z,8.27
2023-04-26T18:05:51.349Z,7.45
2023-04-26T18:08:24.481Z,7.35
2023-04-26T18:10:54.797Z,7.10
2023-04-26T18:13:25.083Z,8.45
2023-04-26T18:15:57.654Z,9.95
2023-04-26T18:18:28.158Z,7.45
2023-04-26T18:20:58.437Z,8.45
2023-04-26T18:23:31.784Z,8.15
2023-04-26T18:26:02.041Z,9.75
2023-04-26T18:28:32.440Z,7.95
2023-04-26T18:31:03.613Z,9.95
2023-04-26T18:33:33.950Z,8.98
2023-04-26T18:36:04.890Z,7.32
2023-04-26T18:38:37.828Z,8.50
2023-04-26T18:41:08.143Z,8.73
2023-04-26T18:43:38.506Z,8.18
2023-04-26T18:46:08.848Z,6.25
2023-04-26T18:48:39.239Z,5.28
2023-04-26T18:51:09.579Z,5.35
2023-04-26T18:53:42.569Z,5.95
2023-04-26T18:56:12.771Z,6.63
2023-04-26T18:58:43.126Z,8.02
2023-04-26T19:01:13.557Z,8.07
2023-04-26T19:03:45.776Z,7.05
2023-04-26T19:06:17.715Z,9.68
2023-04-26T19:08:53.448Z,10.68
2023-04-26T19:11:23.740Z,8.88
2023-04-26T19:13:54.080Z,9.35
2023-04-26T19:16:24.585Z,9.38
2023-04-26T19:18:55.367Z,6.55
2023-04-26T19:21:25.681Z,12.00
2023-04-26T19:23:58.699Z,7.60
2023-04-26T19:26:29.032Z,9.88
2023-04-26T19:28:59.326Z,10.00
2023-04-26T19:31:30.041Z,10.38
2023-04-26T19:34:00.354Z,10.98
2023-04-26T19:36:31.801Z,12.48
2023-04-26T19:39:05.022Z,11.52
2023-04-26T19:41:35.706Z,8.82
2023-04-26T19:44:06.184Z,11.70
2023-04-26T19:46:37.252Z,10.23
2023-04-26T19:49:07.624Z,7.38
2023-04-26T19:51:38.165Z,8.77
2023-04-26T19:54:11.327Z,7.68
2023-04-26T19:56:41.621Z,8.73
2023-04-26T19:59:13.662Z,8.40
2023-04-26T20:01:44.101Z,10.13
2023-04-26T20:04:14.925Z,8.45
2023-04-26T20:06:45.407Z,7.63
2023-04-26T20:09:18.543Z,10.25
2023-04-26T20:11:49.970Z,9.25
2023-04-26T20:14:20.492Z,8.38
2023-04-26T20:16:51.912Z,7.47
2023-04-26T20:19:22.215Z,7.93
2023-04-26T20:21:52.584Z,6.35
2023-04-26T20:24:28.133Z,7.85
2023-04-26T20:26:59.032Z,9.85
2023-04-26T20:29:29.286Z,7.60
2023-04-26T20:31:59.664Z,7.50
2023-04-26T20:34:29.991Z,6.93
2023-04-26T20:37:03.328Z,10.30
2023-04-26T20:39:36.972Z,7.57
2023-04-26T20:42:07.644Z,7.03
2023-04-26T20:44:38.032Z,10.10
2023-04-26T20:47:08.994Z,8.35
2023-04-26T20:49:39.427Z,7.78
2023-04-26T20:52:09.959Z,8.77
2023-04-26T20:54:42.828Z,10.27
2023-04-26T20:57:13.079Z,8.98
2023-04-26T20:59:43.654Z,7.65
2023-04-26T21:02:14.584Z,7.25
2023-04-26T21:04:45.327Z,8.90
2023-04-26T21:07:15.949Z,8.15
2023-04-26T21:09:49.651Z,8.02
2023-04-26T21:12:20.008Z,7.72
2023-04-26T21:14:50.274Z,8.68
2023-04-26T21:17:21.675Z,10.05
2023-04-26T21:19:52.110Z,10.80
2023-04-26T21:22:22.453Z,13.02
2023-04-26T21:24:57.356Z,11.13
2023-04-26T21:27:29.325Z,11.10
2023-04-26T21:29:59.627Z,12.27
2023-04-26T21:32:29.905Z,9.77
2023-04-26T21:35:00.172Z,11.85
2023-04-26T21:37:31.096Z,9.77
2023-04-26T21:40:06.243Z,13.68
2023-04-26T21:42:36.639Z,10.07
2023-04-26T21:45:08.334Z,10.70
2023-04-26T21:47:38.653Z,9.82
2023-04-26T21:50:14.512Z,9.43
2023-04-26T21:52:44.838Z,9.85
2023-04-26T21:55:17.817Z,8.13
2023-04-26T21:57:48.166Z,7.63
2023-04-26T22:00:19.090Z,7.88
2023-04-26T22:02:49.586Z,7.78
2023-04-26T22:05:19.911Z,8.35
2023-04-26T22:07:50.544Z,8.75
2023-04-26T22:10:23.620Z,8.70
2023-04-26T22:12:58.208Z,6.65
2023-04-26T22:15:28.533Z,8.02
2023-04-26T22:17:59.039Z,10.43
2023-04-26T22:20:30.213Z,8.15
2023-04-26T22:23:00.611Z,8.57
2023-04-26T22:25:33.518Z,9.55
2023-04-26T22:28:06.275Z,6.75
2023-04-26T22:30:36.707Z,8.52
2023-04-26T22:33:07.387Z,7.80
2023-04-26T22:35:41.844Z,7.72
2023-04-26T22:38:12.112Z,8.25
2023-04-26T22:40:45.212Z,8.77
2023-04-26T22:43:15.505Z,7.72
2023-04-26T22:45:45.787Z,8.10
2023-04-26T22:48:17.080Z,8.65
2023-04-26T22:50:47.461Z,7.93
2023-04-26T22:53:17.823Z,8.15
2023-04-26T22:55:52.037Z,7.82
2023-04-26T22:58:24.794Z,9.38
2023-04-26T23:00:55.275Z,14.93
2023-04-26T23:03:25.834Z,10.00
2023-04-26T23:05:56.244Z,11.45
2023-04-26T23:08:28.866Z,11.13
2023-04-26T23:11:01.873Z,10.48
2023-04-26T23:13:32.546Z,13.17
2023-04-26T23:16:02.861Z,10.75
2023-04-26T23:18:34.268Z,11.52
2023-04-26T23:21:07.714Z,12.50
2023-04-26T23:23:39.087Z,10.50
2023-04-26T23:26:11.992Z,11.60
2023-04-26T23:28:42.762Z,11.25
2023-04-26T23:31:13.105Z,10.82
2023-04-26T23:33:45.747Z,12.38
2023-04-26T23:36:17.514Z,10.55
2023-04-26T23:38:47.851Z,11.35
2023-04-26T23:41:23.776Z,11.07
2023-04-26T23:43:54.050Z,10.98
2023-04-26T23:46:24.438Z,13.13
2023-04-26T23:48:54.755Z,8.23
2023-04-26T23:51:25.037Z,5.57
2023-04-26T23:53:55.496Z,6.88
2023-04-26T23:56:28.845Z,8.43
2023-04-26T23:58:59.499Z,8.75
